Time;durP1;ratioP1;P1;durP2;ratioP2;P2;SDS_P1;SDS_P2;PMS_P1;PMS_P2;Temp;Humidity;BMP_temperature;BMP_pressure;BME280_temperature;BME280_humidity;BME280_pressure;Samples;Min_cycle;Max_cycle;Signal;HPM_P1;HPM_P2
2022/12/13 00:01:50;;;;;;;0.20;0.20;;;-5.00;99.90;;;-5.32;100.00;99605.47;4867162;29;20239;-71
2022/12/13 00:04:20;;;;;;;0.20;0.20;;;-5.00;99.90;;;-5.32;100.00;99600.31;4851128;29;20245;-69
2022/12/13 00:06:49;;;;;;;0.20;0.20;;;-5.00;99.90;;;-5.34;100.00;99589.91;4851263;29;20248;-70
2022/12/13 00:09:18;;;;;;;0.40;0.40;;;-5.00;99.90;;;-5.36;100.00;99598.34;4836958;29;20694;-71
2022/12/13 00:11:45;;;;;;;0.20;0.20;;;-5.00;99.90;;;-5.44;100.00;99584.16;4848255;29;20229;-69
2022/12/13 00:14:12;;;;;;;0.20;0.20;;;-5.10;99.90;;;-5.38;100.00;99585.38;4866694;29;20285;-70
2022/12/13 00:16:44;;;;;;;0.20;0.20;;;-5.10;99.90;;;-5.42;100.00;99586.00;4835078;29;20258;-68
2022/12/13 00:19:12;;;;;;;0.20;0.20;;;-5.00;99.90;;;-5.43;100.00;99581.66;4833896;29;20313;-69
2022/12/13 00:21:38;;;;;;;0.20;0.20;;;-4.70;99.90;;;-5.48;100.00;99573.66;4851414;29;20387;-71
2022/12/13 00:24:07;;;;;;;0.20;0.20;;;-5.10;99.90;;;-5.54;100.00;99567.25;4853363;29;20251;-68
2022/12/13 00:26:34;;;;;;;0.20;0.20;;;-4.80;99.90;;;-5.48;100.00;99567.63;4849438;29;20253;-70
2022/12/13 00:29:04;;;;;;;0.20;0.20;;;-5.10;99.90;;;-5.38;100.00;99576.78;4859717;29;20260;-70
2022/12/13 00:31:31;;;;;;;0.20;0.20;;;-5.10;99.90;;;-5.48;100.00;99562.47;4848320;29;20257;-70
2022/12/13 00:34:19;;;;;;;1.65;1.33;;;-5.10;99.90;;;-5.34;100.00;99574.47;4838562;29;20244;-68
2022/12/13 00:36:47;;;;;;;0.20;0.20;;;-5.00;99.90;;;-5.33;100.00;99578.81;4855998;29;20233;-68
2022/12/13 00:39:15;;;;;;;0.20;0.20;;;-5.00;99.90;;;-5.44;100.00;99572.16;4862053;29;20240;-69
2022/12/13 00:41:43;;;;;;;0.20;0.20;;;-5.00;99.90;;;-5.34;100.00;99584.75;4857626;29;20240;-68
2022/12/13 00:44:12;;;;;;;0.20;0.20;;;-5.00;99.90;;;-5.33;100.00;99583.97;4837636;29;20236;-69
2022/12/13 00:46:40;;;;;;;0.20;0.20;;;-5.00;99.90;;;-5.30;100.00;99588.41;4835949;29;20666;-67
2022/12/13 00:49:11;;;;;;;0.20;0.20;;;-4.90;99.90;;;-5.25;100.00;99589.56;4840185;29;20326;-68
2022/12/13 00:51:39;;;;;;;0.25;0.25;;;-4.90;99.90;;;-5.34;100.00;99587.34;4840409;29;20236;-68
2022/12/13 00:54:06;;;;;;;0.20;0.20;;;-4.90;99.90;;;-5.24;100.00;99588.75;4839674;29;20236;-68
2022/12/13 00:56:33;;;;;;;0.20;0.20;;;-4.90;99.90;;;-5.21;100.00;99591.50;4841383;29;20267;-70
2022/12/13 00:59:00;;;;;;;0.20;0.20;;;-4.90;99.90;;;-5.23;100.00;99583.69;4835441;29;20258;-69
2022/12/13 01:01:33;;;;;;;0.30;0.30;;;-4.90;99.90;;;-5.23;100.00;99581.13;4853215;29;20300;-68
2022/12/13 01:04:03;;;;;;;0.20;0.20;;;-4.90;99.90;;;-5.28;100.00;99573.91;4829673;29;20311;-68
2022/12/13 01:06:38;;;;;;;0.20;0.20;;;-4.90;99.90;;;-5.31;100.00;99578.91;4854048;29;20700;-68
2022/12/13 01:09:19;;;;;;;0.10;0.10;;;-4.90;99.90;;;-5.22;100.00;99575.16;4850409;29;20252;-72
2022/12/13 01:11:47;;;;;;;0.10;0.10;;;-4.80;99.90;;;-5.22;100.00;99572.59;4838993;29;20235;-71
2022/12/13 01:14:15;;;;;;;0.30;0.30;;;-4.80;99.90;;;-5.12;100.00;99573.13;4864768;29;20287;-72
2022/12/13 01:16:42;;;;;;;0.20;0.20;;;-4.80;99.90;;;-5.16;100.00;99570.38;4836255;29;20237;-72
2022/12/13 01:19:09;;;;;;;0.20;0.20;;;-4.80;99.90;;;-5.25;100.00;99582.72;4841465;29;20304;-68
2022/12/13 01:21:37;;;;;;;0.43;0.43;;;-4.80;99.90;;;-5.14;100.00;99580.78;4846747;29;20294;-72
2022/12/13 01:24:05;;;;;;;0.20;0.20;;;-4.80;99.90;;;-5.19;100.00;99580.53;4850871;29;20238;-68
2022/12/13 01:26:33;;;;;;;0.10;0.10;;;-4.80;99.90;;;-5.16;100.00;99574.66;4839620;29;20269;-72
2022/12/13 01:29:00;;;;;;;0.17;0.17;;;-4.80;99.90;;;-5.27;100.00;99567.97;4837550;29;20236;-68
2022/12/13 01:31:27;;;;;;;0.20;0.20;;;-4.90;99.90;;;-5.19;100.00;99577.94;4852969;29;20242;-71
2022/12/13 01:33:54;;;;;;;0.10;0.10;;;-4.90;99.90;;;-5.21;100.00;99571.78;4862776;29;20224;-69
2022/12/13 01:36:22;;;;;;;0.20;0.20;;;-4.80;99.90;;;-5.18;100.00;99571.09;4855347;29;20316;-71
2022/12/13 01:38:55;;;;;;;0.20;0.20;;;-4.80;99.90;;;-5.30;100.00;99557.47;4837719;29;20251;-68
2022/12/13 01:41:27;;;;;;;0.20;0.20;;;-4.90;99.90;;;-5.32;100.00;99549.66;4853143;29;20277;-69
2022/12/13 01:44:06;;;;;;;0.60;0.60;;;-4.90;99.90;;;-5.38;100.00;99553.59;4849278;29;20234;-69
2022/12/13 01:46:34;;;;;;;2.60;2.40;;;-5.00;99.90;;;-5.45;100.00;99552.34;4835794;29;20259;-69
2022/12/13 01:49:10;;;;;;;0.20;0.20;;;-5.10;99.90;;;-5.47;100.00;99547.09;4855071;29;20240;-68
2022/12/13 01:51:59;;;;;;;1.10;1.10;;;-5.10;99.90;;;-5.54;100.00;99542.41;4836016;29;20232;-71
2022/12/13 01:54:38;;;;;;;0.30;0.30;;;-5.20;99.90;;;-5.63;100.00;99539.28;4848055;29;20318;-70
2022/12/13 01:57:14;;;;;;;0.20;0.20;;;-5.30;99.90;;;-5.65;100.00;99533.16;4840969;29;20228;-69
2022/12/13 01:59:43;;;;;;;0.40;0.40;;;-5.30;99.90;;;-5.69;100.00;99528.63;4848919;29;20224;-70
2022/12/13 02:02:13;;;;;;;0.30;0.30;;;-5.40;99.90;;;-5.76;100.00;99516.19;4829969;29;20234;-68
2022/12/13 02:05:14;;;;;;;0.20;0.20;;;-4.30;99.90;;;-5.82;100.00;99510.69;4844701;29;20260;-68
2022/12/13 02:07:44;;;;;;;0.30;0.30;;;-5.40;99.90;;;-5.80;100.00;99512.56;4843085;29;20235;-70
2022/12/13 02:10:11;;;;;;;0.20;0.20;;;-5.40;99.90;;;-5.86;100.00;99507.06;4846809;29;20233;-68
2022/12/13 02:12:39;;;;;;;0.20;0.20;;;-5.50;99.90;;;-5.89;100.00;99506.03;4833394;29;20299;-69
2022/12/13 02:15:13;;;;;;;0.25;0.25;;;-5.50;99.90;;;-5.87;100.00;99513.00;4850828;29;20304;-69
2022/12/13 02:17:49;;;;;;;0.20;0.20;;;-5.40;99.90;;;-5.70;100.00;99524.28;4831861;29;20325;-67
2022/12/13 02:20:53;;;;;;;0.50;0.50;;;-5.40;99.90;;;-5.85;100.00;99511.41;4865991;29;20240;-71
2022/12/13 02:23:33;;;;;;;0.30;0.30;;;-5.40;99.90;;;-5.78;100.00;99519.47;4850097;29;20236;-69
2022/12/13 02:26:43;;;;;;;0.20;0.20;;;-5.40;99.90;;;-5.85;100.00;99516.56;4864501;29;20334;-69
2022/12/13 02:29:45;;;;;;;0.20;0.20;;;-5.40;99.90;;;-5.78;100.00;99522.94;4864688;29;21455;-68
2022/12/13 02:33:01;;;;;;;0.20;0.20;;;-5.40;99.90;;;-5.81;100.00;99518.50;4849679;29;20329;-70
2022/12/13 02:36:17;;;;;;;3.30;1.17;;;-5.40;99.90;;;-5.84;100.00;99512.28;4847810;29;20228;-67
2022/12/13 02:39:08;;;;;;;0.20;0.20;;;-5.40;99.90;;;-5.78;100.00;99520.38;4852038;29;20240;-68
2022/12/13 02:41:50;;;;;;;0.20;0.20;;;-5.40;99.90;;;-5.84;100.00;99517.44;4835075;29;20335;-68
2022/12/13 02:44:29;;;;;;;0.20;0.20;;;-5.50;99.90;;;-5.84;100.00;99520.00;4833859;29;20256;-72
2022/12/13 02:47:08;;;;;;;0.20;0.20;;;-5.50;99.90;;;-5.84;100.00;99510.59;4832099;29;20236;-71
2022/12/13 02:49:45;;;;;;;0.20;0.20;;;-5.50;99.90;;;-5.80;100.00;99519.41;4864067;29;20289;-68
2022/12/13 02:52:17;;;;;;;0.20;0.20;;;-5.40;99.90;;;-5.84;100.00;99512.28;4848636;29;20259;-69
2022/12/13 02:54:48;;;;;;;0.20;0.20;;;-5.40;99.90;;;-5.82;100.00;99518.41;4837883;29;20319;-71
2022/12/13 02:57:45;;;;;;;0.30;0.30;;;-5.40;99.90;;;-5.84;100.00;99520.00;4867098;29;20292;-72
2022/12/13 03:00:18;;;;;;;0.20;0.20;;;-5.40;99.90;;;-5.83;100.00;99524.38;4838158;29;20300;-67
2022/12/13 03:03:05;;;;;;;0.20;0.20;;;-5.40;99.90;;;-5.86;100.00;99512.19;4868622;29;20312;-68
2022/12/13 03:09:23;;;;;;;0.20;0.20;;;-5.60;99.90;;;-5.88;100.00;99508.66;4845755;29;20260;-69
2022/12/13 03:15:12;;;;;;;0.93;0.93;;;-5.50;99.90;;;-5.87;100.00;99505.28;4860829;29;20238;-69
2022/12/13 03:18:14;;;;;;;0.20;0.20;;;-5.50;99.90;;;-5.84;100.00;99512.28;4829111;29;20265;-72
2022/12/13 03:20:57;;;;;;;0.20;0.20;;;-5.50;99.90;;;-5.84;100.00;99504.56;4832007;29;20673;-71
2022/12/13 03:23:26;;;;;;;0.20;0.20;;;-5.50;99.90;;;-5.88;100.00;99505.19;4863035;29;20243;-70
2022/12/13 03:25:58;;;;;;;0.20;0.20;;;-5.50;99.90;;;-5.93;100.00;99504.06;4827323;29;20241;-71
2022/12/13 03:28:25;;;;;;;0.40;0.40;;;-5.70;99.90;;;-5.88;100.00;99507.75;4848263;29;20247;-69
2022/12/13 03:30:52;;;;;;;0.20;0.20;;;-5.50;99.90;;;-5.87;100.00;99504.38;4829734;29;20335;-68
2022/12/13 03:33:20;;;;;;;0.20;0.20;;;-5.50;99.90;;;-5.88;100.00;99502.63;4846918;29;20241;-70
2022/12/13 03:35:48;;;;;;;0.50;0.50;;;-5.50;99.90;;;-5.88;100.00;99506.06;4829344;29;20232;-69
2022/12/13 03:38:17;;;;;;;0.20;0.20;;;-5.50;99.90;;;-5.97;100.00;99495.28;4850266;29;20351;-73
2022/12/13 03:40:52;;;;;;;0.20;0.20;;;-5.50;99.90;;;-5.89;100.00;99506.88;4862199;29;20681;-68
2022/12/13 03:43:19;;;;;;;0.30;0.30;;;-5.50;99.90;;;-5.92;100.00;99514.44;4836554;29;20831;-68
2022/12/13 03:45:50;;;;;;;0.20;0.20;;;-5.60;99.90;;;-5.94;100.00;99510.91;4845756;29;20272;-68
2022/12/13 03:48:18;;;;;;;0.20;0.20;;;-5.60;99.90;;;-5.98;100.00;99508.06;4848584;29;20437;-69
2022/12/13 03:50:53;;;;;;;2.60;1.58;;;-5.60;99.90;;;-5.94;100.00;99515.16;4837073;29;20239;-70
2022/12/13 03:53:22;;;;;;;0.20;0.20;;;-5.60;99.90;;;-6.04;100.00;99505.13;4836034;29;20240;-68
2022/12/13 03:56:05;;;;;;;0.30;0.30;;;-5.60;99.90;;;-6.10;100.00;99494.47;4864706;29;20243;-69
2022/12/13 03:58:34;;;;;;;0.20;0.20;;;-5.70;99.90;;;-6.06;100.00;99499.00;4851481;29;20293;-68
2022/12/13 04:01:09;;;;;;;0.32;0.32;;;-5.70;99.90;;;-6.07;100.00;99492.97;4850223;29;20252;-71
2022/12/13 04:03:38;;;;;;;0.35;0.35;;;-5.70;99.90;;;-6.16;100.00;99482.13;4839772;29;20240;-69
2022/12/13 04:06:07;;;;;;;0.20;0.20;;;-5.80;99.90;;;-6.10;100.00;99497.94;4854197;29;20297;-69
2022/12/13 04:08:36;;;;;;;0.20;0.20;;;-5.70;99.90;;;-6.13;100.00;99496.06;4841839;29;20254;-69
2022/12/13 04:13:31;;;;;;;0.20;0.20;;;-5.80;99.90;;;-6.18;100.00;99483.72;4857044;29;20232;-68
2022/12/13 04:13:52;;;;;;;0.20;0.20;;;-5.80;99.90;;;-6.26;100.00;99479.81;4845181;29;20271;-72
2022/12/13 04:16:21;;;;;;;0.20;0.20;;;-5.80;99.90;;;-6.26;100.00;99482.38;4851291;29;20308;-72
2022/12/13 04:18:48;;;;;;;0.20;0.20;;;-5.80;99.90;;;-6.24;100.00;99470.50;4849093;29;20244;-69
2022/12/13 04:21:15;;;;;;;0.20;0.20;;;-5.90;99.90;;;-6.22;100.00;99466.31;4851951;29;20266;-69
2022/12/13 04:23:42;;;;;;;0.20;0.20;;;-5.90;99.90;;;-6.24;100.00;99463.66;4860392;29;20317;-70
2022/12/13 04:26:09;;;;;;;0.20;0.20;;;-5.80;99.90;;;-6.15;100.00;99471.03;4858528;29;20323;-69
2022/12/13 04:28:36;;;;;;;0.50;0.50;;;-5.80;99.90;;;-6.16;100.00;99472.72;4872471;29;20366;-73
2022/12/13 04:31:03;;;;;;;0.30;0.30;;;-5.80;99.90;;;-6.11;100.00;99469.53;4858028;29;20319;-68
2022/12/13 04:33:31;;;;;;;0.20;0.20;;;-5.70;99.90;;;-6.13;100.00;99472.00;4855180;29;20246;-73
2022/12/13 04:35:59;;;;;;;0.20;0.20;;;-5.80;99.90;;;-6.08;100.00;99478.31;4834162;29;20721;-68
2022/12/13 04:38:26;;;;;;;0.20;0.20;;;-5.70;99.90;;;-6.17;100.00;99464.91;4850904;29;20328;-69
2022/12/13 04:40:53;;;;;;;0.75;0.75;;;-5.80;99.90;;;-6.18;100.00;99469.16;4854832;29;20255;-69
2022/12/13 04:43:20;;;;;;;0.52;0.52;;;-5.80;99.90;;;-6.21;100.00;99470.66;4832602;29;20250;-70
2022/12/13 04:45:47;;;;;;;0.20;0.20;;;-5.80;99.90;;;-6.24;100.00;99471.38;4850687;29;20300;-69
2022/12/13 04:48:14;;;;;;;0.20;0.20;;;-5.80;99.90;;;-6.27;100.00;99466.06;4849021;29;20280;-70
2022/12/13 04:50:59;;;;;;;1.75;1.38;;;-5.90;99.90;;;-6.26;100.00;99466.94;4855854;29;20236;-68
2022/12/13 04:53:29;;;;;;;0.30;0.30;;;-5.90;99.90;;;-6.32;100.00;99458.84;4854547;29;20260;-68
2022/12/13 04:55:56;;;;;;;0.20;0.20;;;-5.90;99.90;;;-6.29;100.00;99462.50;4841273;29;20236;-69
2022/12/13 04:58:23;;;;;;;0.20;0.20;;;-5.90;99.90;;;-6.32;100.00;99458.84;4857137;29;20671;-69
2022/12/13 05:00:50;;;;;;;0.30;0.30;;;-5.90;99.90;;;-6.32;100.00;99452.03;4834460;29;20236;-71
2022/12/13 05:03:17;;;;;;;0.20;0.20;;;-5.90;99.90;;;-6.29;100.00;99456.47;4835771;29;20237;-69
2022/12/13 05:05:44;;;;;;;0.30;0.30;;;-5.90;99.90;;;-6.30;100.00;99450.44;4843800;29;20252;-68
2022/12/13 05:08:12;;;;;;;0.30;0.30;;;-5.90;99.90;;;-6.27;100.00;99452.31;4830475;29;20264;-72
2022/12/13 05:10:39;;;;;;;0.28;0.28;;;-6.00;99.90;;;-6.35;100.00;99444.13;4832484;29;20280;-69
2022/12/13 05:13:06;;;;;;;0.20;0.20;;;-6.00;99.90;;;-6.38;100.00;99443.94;4831587;29;20247;-70
2022/12/13 05:15:34;;;;;;;0.40;0.40;;;-6.00;99.90;;;-6.39;100.00;99444.75;4836101;29;20718;-73
2022/12/13 05:18:06;;;;;;;0.30;0.30;;;-6.00;99.90;;;-6.36;100.00;99452.66;4833168;29;20244;-68
2022/12/13 05:20:40;;;;;;;0.20;0.20;;;-5.90;99.90;;;-6.40;100.00;99454.94;4835240;29;20236;-70
2022/12/13 05:23:07;;;;;;;0.30;0.30;;;-6.00;99.90;;;-6.37;100.00;99453.44;4830708;29;20773;-68
2022/12/13 05:25:35;;;;;;;0.30;0.30;;;-6.00;99.90;;;-6.40;100.00;99445.53;4848682;29;20271;-68
2022/12/13 05:28:04;;;;;;;0.30;0.30;;;-6.00;99.90;;;-6.34;100.00;99448.47;4863503;29;20228;-69
2022/12/13 05:30:38;;;;;;;0.30;0.30;;;-6.00;99.90;;;-6.35;100.00;99456.09;4836656;29;20236;-73
2022/12/13 05:33:07;;;;;;;0.25;0.25;;;-6.00;99.90;;;-6.47;100.00;99438.25;4828941;29;20252;-71
2022/12/13 05:35:35;;;;;;;0.30;0.30;;;-6.10;99.90;;;-6.49;100.00;99434.72;4847011;29;20311;-70
2022/12/13 05:38:03;;;;;;;0.20;0.20;;;-6.00;99.90;;;-6.44;100.00;99441.00;4845363;29;20246;-70
2022/12/13 05:40:31;;;;;;;0.35;0.35;;;-6.10;99.90;;;-6.52;100.00;99431.91;4842853;29;20655;-69
2022/12/13 05:42:58;;;;;;;0.30;0.30;;;-6.20;99.90;;;-6.50;100.00;99428.69;4849642;29;20776;-71
2022/12/13 05:45:31;;;;;;;0.40;0.40;;;-6.10;99.90;;;-6.43;100.00;99437.66;4855292;29;20296;-69
2022/12/13 05:47:59;;;;;;;0.30;0.30;;;-6.10;99.90;;;-6.49;100.00;99437.28;4844073;29;20244;-69
2022/12/13 05:50:26;;;;;;;0.30;0.30;;;-6.00;99.90;;;-6.43;100.00;99435.06;4852426;29;20594;-72
2022/12/13 05:52:53;;;;;;;0.20;0.20;;;-6.10;99.90;;;-6.45;100.00;99431.53;4847316;29;20229;-73
2022/12/13 05:55:25;;;;;;;0.40;0.40;;;-6.00;99.90;;;-6.48;100.00;99429.66;4846670;29;20327;-73
2022/12/13 05:57:59;;;;;;;0.30;0.30;;;-6.10;99.90;;;-6.49;100.00;99429.56;4835634;29;20247;-71
2022/12/13 06:00:28;;;;;;;0.30;0.30;;;-6.20;99.90;;;-6.52;100.00;99427.66;4834505;29;20743;-69
2022/12/13 06:02:59;;;;;;;0.30;0.30;;;-6.10;99.90;;;-6.54;100.00;99421.53;4840526;29;20244;-69
2022/12/13 06:05:28;;;;;;;0.30;0.30;;;-6.10;99.90;;;-6.58;100.00;99419.59;4860186;29;20282;-72
2022/12/13 06:07:56;;;;;;;0.30;0.30;;;-6.20;99.90;;;-6.64;100.00;99426.94;4840861;29;20245;-69
2022/12/13 06:10:26;;;;;;;0.30;0.30;;;-6.30;99.90;;;-6.66;100.00;99427.63;4828640;29;20237;-73
2022/12/13 06:13:02;;;;;;;0.30;0.30;;;-6.30;99.90;;;-6.68;100.00;99439.50;4844250;29;20356;-70
2022/12/13 06:15:59;;;;;;;0.85;0.85;;;-6.30;99.90;;;-6.67;100.00;99441.28;4856748;29;20260;-68
2022/12/13 06:18:32;;;;;;;0.30;0.30;;;-6.30;99.90;;;-6.67;100.00;99433.56;4842469;29;20326;-67
2022/12/13 06:21:04;;;;;;;0.30;0.30;;;-6.30;99.90;;;-6.68;100.00;99440.41;4867501;29;20240;-68
2022/12/13 06:23:33;;;;;;;0.20;0.20;;;-6.30;99.90;;;-6.69;100.00;99433.47;4827797;29;20324;-67
2022/12/13 06:26:05;;;;;;;0.30;0.30;;;-6.30;99.90;;;-6.66;100.00;99431.09;4808936;29;20248;-67
2022/12/13 06:28:32;;;;;;;0.30;0.30;;;-6.20;99.90;;;-6.66;100.00;99433.66;4845629;29;20319;-67
2022/12/13 06:31:01;;;;;;;0.30;0.30;;;-6.30;99.90;;;-6.76;100.00;99439.03;4842856;29;20246;-66
2022/12/13 06:33:28;;;;;;;0.30;0.30;;;-6.40;99.90;;;-6.71;100.00;99447.03;4847655;29;20248;-67
2022/12/13 06:35:57;;;;;;;1.55;0.93;;;-6.30;99.90;;;-6.74;100.00;99440.03;4859198;29;20235;-67
2022/12/13 06:38:24;;;;;;;0.40;0.40;;;-6.30;99.90;;;-6.74;100.00;99445.16;4836644;29;20244;-67
2022/12/13 06:41:13;;;;;;;0.30;0.30;;;-6.30;99.90;;;-6.73;100.00;99443.50;4829002;29;20348;-67
2022/12/13 06:43:45;;;;;;;0.30;0.30;;;-6.30;99.90;;;-6.80;100.00;99439.66;4828310;29;20289;-67
2022/12/13 06:46:14;;;;;;;0.30;0.30;;;-6.40;99.90;;;-6.83;100.00;99439.47;4855364;29;20254;-68
2022/12/13 06:48:41;;;;;;;0.30;0.30;;;-6.40;99.90;;;-6.73;100.00;99443.50;4873233;29;20241;-67
2022/12/13 06:51:09;;;;;;;0.20;0.20;;;-6.30;99.90;;;-6.78;100.00;99440.63;4867573;29;20348;-68
2022/12/13 06:53:38;;;;;;;0.70;0.70;;;-6.40;99.90;;;-6.79;100.00;99432.03;4842155;29;20327;-67
2022/12/13 06:56:09;;;;;;;0.30;0.30;;;-6.40;99.90;;;-6.86;100.00;99435.03;4845857;29;20251;-67
2022/12/13 06:58:36;;;;;;;0.35;0.35;;;-6.40;99.90;;;-6.86;100.00;99444.41;4856466;29;20320;-68
2022/12/13 07:01:09;;;;;;;0.30;0.30;;;-6.50;99.90;;;-6.88;100.00;99435.72;4857634;29;20308;-67
2022/12/13 07:03:49;;;;;;;0.40;0.40;;;-6.40;99.90;;;-6.80;100.00;99440.53;4857433;29;20277;-67
2022/12/13 07:06:22;;;;;;;0.30;0.30;;;-6.40;99.90;;;-6.80;100.00;99442.22;4852476;29;20240;-67
2022/12/13 07:08:53;;;;;;;0.40;0.40;;;-6.50;99.90;;;-6.89;100.00;99437.41;4848193;29;20272;-67
2022/12/13 07:11:29;;;;;;;0.30;0.30;;;-6.50;99.90;;;-6.84;100.00;99448.84;4844897;29;20244;-67
2022/12/13 07:13:56;;;;;;;0.30;0.30;;;-6.40;99.90;;;-6.84;100.00;99456.56;4831458;29;20280;-68
2022/12/13 07:16:24;;;;;;;1.35;1.35;;;-6.40;99.90;;;-6.81;100.00;99461.91;4834629;29;20335;-68
2022/12/13 07:18:58;;;;;;;0.30;0.30;;;-6.50;99.90;;;-6.89;100.00;99459.66;4840120;29;20789;-68
2022/12/13 07:21:29;;;;;;;0.30;0.30;;;-6.50;99.90;;;-6.82;100.00;99470.41;4839909;29;20244;-68
2022/12/13 07:23:56;;;;;;;0.70;0.70;;;-6.40;99.90;;;-6.80;100.00;99468.81;4866217;29;20315;-67
2022/12/13 07:26:23;;;;;;;0.30;0.30;;;-6.40;99.90;;;-6.79;100.00;99470.59;4841081;29;20252;-67
2022/12/13 07:28:50;;;;;;;0.30;0.30;;;-6.40;99.90;;;-6.80;100.00;99473.97;4857403;29;20325;-68
2022/12/13 07:31:23;;;;;;;0.30;0.30;;;-6.30;99.90;;;-6.75;100.00;99479.38;4843280;29;20750;-67
2022/12/13 07:33:51;;;;;;;0.30;0.30;;;-6.30;99.90;;;-6.73;100.00;99489.75;4833022;29;20236;-67
2022/12/13 07:36:20;;;;;;;0.38;0.38;;;-6.30;99.90;;;-6.73;100.00;99494.91;4849195;29;20324;-67
2022/12/13 07:38:53;;;;;;;0.30;0.30;;;-6.30;99.90;;;-6.72;100.00;99504.38;4853302;29;20324;-67
2022/12/13 07:41:22;;;;;;;0.30;0.30;;;-6.30;99.90;;;-6.72;100.00;99505.28;4836722;29;20240;-67
2022/12/13 07:43:51;;;;;;;0.57;0.57;;;-6.30;99.90;;;-6.68;100.00;99504.66;4871171;29;20228;-68
2022/12/13 07:46:22;;;;;;;0.40;0.40;;;-6.30;99.90;;;-6.62;100.00;99519.59;4839474;29;20244;-68
2022/12/13 07:49:04;;;;;;;0.30;0.30;;;-6.20;99.90;;;-6.62;100.00;99517.00;4830341;29;20241;-67
2022/12/13 07:54:02;;;;;;;0.30;0.30;;;-6.10;99.90;;;-6.53;100.00;99523.59;4857995;29;20265;-75
2022/12/13 07:56:34;;;;;;;0.30;0.30;;;-6.10;99.90;;;-6.49;100.00;99522.16;4864607;29;20241;-75
2022/12/13 07:59:01;;;;;;;1.33;1.33;;;-6.10;99.90;;;-6.51;100.00;99527.16;4876186;29;20259;-76
2022/12/13 08:01:33;;;;;;;0.30;0.30;;;-6.10;99.90;;;-6.43;100.00;99525.09;4887222;29;20707;-76
2022/12/13 08:04:03;;;;;;;0.30;0.30;;;-6.10;99.90;;;-6.45;100.00;99516.41;4873729;29;20232;-76
2022/12/13 08:06:35;;;;;;;0.30;0.30;;;-6.00;99.90;;;-6.43;100.00;99511.34;4877489;29;20228;-75
2022/12/13 08:09:04;;;;;;;0.20;0.20;;;-6.00;99.90;;;-6.37;100.00;99522.00;4871305;29;20251;-75
2022/12/13 08:11:31;;;;;;;0.20;0.20;;;-6.00;99.90;;;-6.40;100.00;99524.38;4873943;29;20232;-75
2022/12/13 08:13:58;;;;;;;0.30;0.30;;;-6.00;99.90;;;-6.36;100.00;99531.50;4879916;29;20327;-75
2022/12/13 08:16:25;;;;;;;0.32;0.32;;;-6.00;99.90;;;-6.29;100.00;99549.09;4859185;29;20323;-75
2022/12/13 08:18:57;;;;;;;0.30;0.30;;;-5.90;99.90;;;-6.29;100.00;99561.94;4877451;29;20235;-75
2022/12/13 08:21:38;;;;;;;0.25;0.25;;;-5.90;99.90;;;-6.25;100.00;99556.19;4875300;29;20319;-75
2022/12/13 08:24:26;;;;;;;0.30;0.30;;;-5.90;99.90;;;-6.25;100.00;99544.22;4867411;29;20320;-74
2022/12/13 08:26:59;;;;;;;0.30;0.30;;;-5.90;99.90;;;-6.12;100.00;99558.72;4845786;29;20233;-76
2022/12/13 08:29:33;;;;;;;0.30;0.30;;;-5.70;99.90;;;-6.07;100.00;99567.59;4878178;29;20244;-75
2022/12/13 08:32:08;;;;;;;0.25;0.25;;;-5.70;99.90;;;-6.00;100.00;99568.84;4868917;29;20272;-76
2022/12/13 08:34:35;;;;;;;0.30;0.30;;;-6.60;99.90;;;-5.97;100.00;99569.03;4868804;29;20268;-75
2022/12/13 08:37:03;;;;;;;0.20;0.20;;;-5.60;99.90;;;-5.94;100.00;99579.50;4872343;29;20266;-75
2022/12/13 08:39:35;;;;;;;0.30;0.30;;;-5.60;99.90;;;-5.92;100.00;99585.63;4862126;29;20316;-75
2022/12/13 08:42:10;;;;;;;0.40;0.40;;;-5.60;99.90;;;-5.87;100.00;99585.09;4884709;29;20315;-75
2022/12/13 08:44:49;;;;;;;0.20;0.20;;;-5.50;99.90;;;-5.82;100.00;99591.41;4873846;29;20283;-74
2022/12/13 08:47:18;;;;;;;1.30;1.30;;;-5.50;99.90;;;-5.84;100.00;99589.53;4876818;29;20240;-76
2022/12/13 08:49:58;;;;;;;0.30;0.30;;;-5.50;99.90;;;-5.78;100.00;99607.03;4857454;29;20239;-77
2022/12/13 08:52:31;;;;;;;0.20;0.20;;;-5.40;99.90;;;-5.73;100.00;99601.34;4862694;29;20349;-77
2022/12/13 08:55:12;;;;;;;0.38;0.38;;;-5.50;99.90;;;-5.77;100.00;99593.34;4860646;29;20228;-78
2022/12/13 08:57:40;;;;;;;0.30;0.30;;;-5.40;99.90;;;-5.72;100.00;99599.66;4854829;29;20235;-78
2022/12/13 09:00:12;;;;;;;0.60;0.60;;;-5.40;99.90;;;-5.72;100.00;99597.97;4873752;29;20679;-75
2022/12/13 09:02:39;;;;;;;0.30;0.30;;;-5.30;99.90;;;-5.72;100.00;99595.41;4873684;29;20343;-75
2022/12/13 09:05:08;;;;;;;0.30;0.30;;;-5.30;99.90;;;-5.67;100.00;99599.13;4872526;29;20241;-76
2022/12/13 09:07:38;;;;;;;3.03;2.08;;;-5.30;99.90;;;-5.65;100.00;99610.41;4857189;29;20238;-75
2022/12/13 09:10:07;;;;;;;0.20;0.20;;;-5.30;99.90;;;-5.65;100.00;99605.28;4874590;29;20237;-75
2022/12/13 09:12:56;;;;;;;0.20;0.20;;;-5.30;99.90;;;-5.65;100.00;99606.97;4874583;29;20236;-76
2022/12/13 09:15:30;;;;;;;0.30;0.30;;;-5.30;99.90;;;-5.57;100.00;99616.91;4874496;29;20305;-74
2022/12/13 09:18:01;;;;;;;0.20;0.20;;;-5.20;99.90;;;-5.52;100.00;99624.91;4873083;29;20232;-75
2022/12/13 09:20:34;;;;;;;0.20;0.20;;;-5.20;99.90;;;-5.56;100.00;99613.53;4849331;29;20233;-76
2022/12/13 09:23:09;;;;;;;0.50;0.50;;;-5.10;99.90;;;-5.49;100.00;99610.53;4868507;29;20308;-77
2022/12/13 09:25:57;;;;;;;0.30;0.30;;;-5.10;99.90;;;-5.42;100.00;99611.78;4867955;29;20232;-77
2022/12/13 09:28:34;;;;;;;0.40;0.40;;;-5.10;99.90;;;-5.40;100.00;99617.00;4872764;29;20698;-75
2022/12/13 09:31:09;;;;;;;0.20;0.20;;;-5.10;99.90;;;-5.39;100.00;99621.38;4871330;29;20315;-75
2022/12/13 09:33:37;;;;;;;0.30;0.30;;;-5.00;99.90;;;-5.36;100.00;99629.28;4851484;29;20288;-76
2022/12/13 09:36:13;;;;;;;0.25;0.25;;;-5.00;99.90;;;-5.32;100.00;99632.13;4874418;29;20398;-75
2022/12/13 09:38:41;;;;;;;0.28;0.28;;;-5.00;99.90;;;-5.30;100.00;99629.63;4863699;29;20228;-76
2022/12/13 09:41:18;;;;;;;0.40;0.40;;;-5.00;99.90;;;-5.32;100.00;99628.66;4862749;29;20236;-74
2022/12/13 09:44:22;;;;;;;0.30;0.30;;;-4.90;99.90;;;-5.23;100.00;99627.50;4853858;29;20236;-75
2022/12/13 09:47:00;;;;;;;0.38;0.38;;;-4.90;99.90;;;-5.24;100.00;99619.69;4866980;29;20374;-75
2022/12/13 09:49:37;;;;;;;0.30;0.30;;;-4.90;99.90;;;-5.29;100.00;99618.53;4861382;29;20240;-76
2022/12/13 09:52:07;;;;;;;0.40;0.40;;;-4.90;99.90;;;-5.21;100.00;99625.91;4866713;29;20912;-75
2022/12/13 09:54:52;;;;;;;0.20;0.20;;;-4.90;99.90;;;-5.21;100.00;99632.75;4849160;29;20311;-75
2022/12/13 09:57:28;;;;;;;0.30;0.30;;;-4.80;99.90;;;-5.11;100.00;99645.41;4862241;29;20228;-76
2022/12/13 10:00:04;;;;;;;0.28;0.28;;;-4.80;99.90;;;-5.04;100.00;99644.94;4865002;29;20319;-76
2022/12/13 10:02:39;;;;;;;0.30;0.30;;;-4.70;99.90;;;-5.01;100.00;99639.09;4869427;29;20247;-76
2022/12/13 10:05:18;;;;;;;0.40;0.40;;;-4.60;99.90;;;-4.98;100.00;99640.16;4852648;29;20243;-76
2022/12/13 10:07:54;;;;;;;0.30;0.30;;;-4.60;99.90;;;-4.95;100.00;99634.28;4867102;29;20238;-76
2022/12/13 10:10:22;;;;;;;0.20;0.20;;;-4.60;99.90;;;-4.95;100.00;99630.00;4866096;29;20228;-77
2022/12/13 10:13:17;;;;;;;0.20;0.20;;;-4.60;99.90;;;-4.88;100.00;99633.81;4868353;29;20243;-77
2022/12/13 10:15:56;;;;;;;0.30;0.30;;;-4.50;99.90;;;-4.89;100.00;99624.31;4827184;29;20260;-76
2022/12/13 10:18:35;;;;;;;0.40;0.40;;;-4.50;99.90;;;-4.85;100.00;99621.09;4856158;29;20232;-78
2022/12/13 10:21:10;;;;;;;0.20;0.20;;;-4.50;99.90;;;-4.86;100.00;99615.06;4869489;29;20268;-75
2022/12/13 10:23:38;;;;;;;0.30;0.30;;;-4.50;99.90;;;-4.87;100.00;99608.13;4847583;29;20681;-79
2022/12/13 10:26:26;;;;;;;1.83;1.73;;;-4.50;99.90;;;-4.86;100.00;99609.00;4862058;29;20240;-75
2022/12/13 10:29:05;;;;;;;0.20;0.20;;;-4.50;99.90;;;-4.82;100.00;99616.13;4851620;29;20240;-76
2022/12/13 10:31:48;;;;;;;0.30;0.30;;;-4.50;99.90;;;-4.68;100.00;99619.47;4852904;29;20268;-78
2022/12/13 10:34:23;;;;;;;0.30;0.30;;;-4.40;99.90;;;-4.61;100.00;99627.63;4851273;29;20247;-77
2022/12/13 10:36:51;;;;;;;0.30;0.30;;;-4.20;99.90;;;-4.52;100.00;99635.00;4864212;29;20224;-75
2022/12/13 10:39:42;;;;;;;0.88;0.85;;;-4.20;99.90;;;-4.39;100.00;99640.03;4847644;29;20239;-74
2022/12/13 10:42:19;;;;;;;0.25;0.25;;;-4.10;99.90;;;-4.41;100.00;99636.47;4848142;29;20236;-76
2022/12/13 10:45:16;;;;;;;0.30;0.30;;;-4.10;99.90;;;-4.31;100.00;99631.00;4867073;29;20232;-78
2022/12/13 10:47:50;;;;;;;0.30;0.30;;;-4.00;99.90;;;-4.27;100.00;99624.31;4864735;29;20260;-77